sensor_id;sensor_type;location;lat;lon;timestamp;temperature;humidity
26595;DHT22;14238;49.496;8.154;2023-02-18T00:00:06;11.50;99.90
26595;DHT22;14238;49.496;8.154;2023-02-18T00:02:32;11.50;99.90
26595;DHT22;14238;49.496;8.154;2023-02-18T00:04:58;11.50;99.90
26595;DHT22;14238;49.496;8.154;2023-02-18T00:07:23;11.50;99.90
26595;DHT22;14238;49.496;8.154;2023-02-18T00:09:49;11.50;99.90
26595;DHT22;14238;49.496;8.154;2023-02-18T00:12:14;11.40;99.90
26595;DHT22;14238;49.496;8.154;2023-02-18T00:14:40;11.40;99.90
26595;DHT22;14238;49.496;8.154;2023-02-18T00:17:05;11.40;99.90
26595;DHT22;14238;49.496;8.154;2023-02-18T00:19:31;11.40;99.90
26595;DHT22;14238;49.496;8.154;2023-02-18T00:21:57;11.30;99.90
26595;DHT22;14238;49.496;8.154;2023-02-18T00:24:22;11.30;99.90
26595;DHT22;14238;49.496;8.154;2023-02-18T00:26:50;11.30;99.90
26595;DHT22;14238;49.496;8.154;2023-02-18T00:29:16;11.30;99.90
26595;DHT22;14238;49.496;8.154;2023-02-18T00:31:42;11.30;99.90
26595;DHT22;14238;49.496;8.154;2023-02-18T00:34:09;11.30;99.90
26595;DHT22;14238;49.496;8.154;2023-02-18T00:36:35;11.30;99.90
26595;DHT22;14238;49.496;8.154;2023-02-18T00:39:04;11.30;99.90
26595;DHT22;14238;49.496;8.154;2023-02-18T00:41:30;11.30;99.90
26595;DHT22;14238;49.496;8.154;2023-02-18T00:43:56;11.30;99.90
26595;DHT22;14238;49.496;8.154;2023-02-18T00:46:23;11.30;99.90
26595;DHT22;14238;49.496;8.154;2023-02-18T00:48:48;11.30;99.90
26595;DHT22;14238;49.496;8.154;2023-02-18T00:51:14;11.30;99.90
26595;DHT22;14238;49.496;8.154;2023-02-18T00:53:40;11.30;99.90
26595;DHT22;14238;49.496;8.154;2023-02-18T00:56:06;11.30;99.90
26595;DHT22;14238;49.496;8.154;2023-02-18T00:58:33;11.30;99.90
26595;DHT22;14238;49.496;8.154;2023-02-18T01:00:59;11.40;99.90
26595;DHT22;14238;49.496;8.154;2023-02-18T01:03:25;11.30;99.90
26595;DHT22;14238;49.496;8.154;2023-02-18T01:05:52;11.30;99.90
26595;DHT22;14238;49.496;8.154;2023-02-18T01:08:19;11.30;99.90
26595;DHT22;14238;49.496;8.154;2023-02-18T01:10:47;11.20;99.90
26595;DHT22;14238;49.496;8.154;2023-02-18T01:13:14;11.20;99.90
26595;DHT22;14238;49.496;8.154;2023-02-18T01:15:40;11.30;99.90
26595;DHT22;14238;49.496;8.154;2023-02-18T01:18:07;11.20;99.90
26595;DHT22;14238;49.496;8.154;2023-02-18T01:20:35;11.20;99.90
26595;DHT22;14238;49.496;8.154;2023-02-18T01:23:00;11.20;99.90
26595;DHT22;14238;49.496;8.154;2023-02-18T01:25:26;11.20;99.90
26595;DHT22;14238;49.496;8.154;2023-02-18T01:27:51;11.20;99.90
26595;DHT22;14238;49.496;8.154;2023-02-18T01:30:18;11.20;99.90
26595;DHT22;14238;49.496;8.154;2023-02-18T01:32:44;11.20;99.90
26595;DHT22;14238;49.496;8.154;2023-02-18T01:35:12;11.20;99.90
26595;DHT22;14238;49.496;8.154;2023-02-18T01:37:38;11.20;99.90
26595;DHT22;14238;49.496;8.154;2023-02-18T01:40:04;11.20;99.90
26595;DHT22;14238;49.496;8.154;2023-02-18T01:42:30;11.20;99.90
26595;DHT22;14238;49.496;8.154;2023-02-18T01:48:01;11.10;99.90
26595;DHT22;14238;49.496;8.154;2023-02-18T01:50:28;11.10;99.90
26595;DHT22;14238;49.496;8.154;2023-02-18T01:52:54;11.10;99.90
26595;DHT22;14238;49.496;8.154;2023-02-18T01:55:19;11.10;99.90
26595;DHT22;14238;49.496;8.154;2023-02-18T01:57:45;11.10;99.90
26595;DHT22;14238;49.496;8.154;2023-02-18T02:00:14;11.10;99.90
26595;DHT22;14238;49.496;8.154;2023-02-18T02:02:43;11.10;99.90
26595;DHT22;14238;49.496;8.154;2023-02-18T02:05:10;11.00;99.90
26595;DHT22;14238;49.496;8.154;2023-02-18T02:07:36;11.00;99.90
26595;DHT22;14238;49.496;8.154;2023-02-18T02:10:02;11.00;99.90
26595;DHT22;14238;49.496;8.154;2023-02-18T02:12:56;11.00;99.90
26595;DHT22;14238;49.496;8.154;2023-02-18T02:18:35;11.00;99.90
26595;DHT22;14238;49.496;8.154;2023-02-18T02:27:04;11.00;99.90
26595;DHT22;14238;49.496;8.154;2023-02-18T02:33:00;11.00;99.90
26595;DHT22;14238;49.496;8.154;2023-02-18T02:35:44;11.00;99.90
26595;DHT22;14238;49.496;8.154;2023-02-18T02:38:19;10.90;99.90
26595;DHT22;14238;49.496;8.154;2023-02-18T02:40:54;10.90;99.90
26595;DHT22;14238;49.496;8.154;2023-02-18T02:46:17;10.90;99.90
26595;DHT22;14238;49.496;8.154;2023-02-18T02:52:05;10.80;99.90
26595;DHT22;14238;49.496;8.154;2023-02-18T02:54:32;10.80;99.90
26595;DHT22;14238;49.496;8.154;2023-02-18T02:59:58;10.80;99.90
26595;DHT22;14238;49.496;8.154;2023-02-18T03:08:40;11.00;99.90
26595;DHT22;14238;49.496;8.154;2023-02-18T03:11:09;11.00;99.90
26595;DHT22;14238;49.496;8.154;2023-02-18T03:16:25;10.90;99.90
26595;DHT22;14238;49.496;8.154;2023-02-18T03:24:14;11.00;99.90
26595;DHT22;14238;49.496;8.154;2023-02-18T03:26:46;11.10;99.90
26595;DHT22;14238;49.496;8.154;2023-02-18T03:29:13;11.00;99.90
26595;DHT22;14238;49.496;8.154;2023-02-18T03:31:42;11.00;99.90
26595;DHT22;14238;49.496;8.154;2023-02-18T03:34:15;11.00;99.90
26595;DHT22;14238;49.496;8.154;2023-02-18T03:36:41;11.00;99.90
26595;DHT22;14238;49.496;8.154;2023-02-18T03:39:10;11.00;99.90
26595;DHT22;14238;49.496;8.154;2023-02-18T03:41:38;10.90;99.90
26595;DHT22;14238;49.496;8.154;2023-02-18T03:44:06;11.00;99.90
26595;DHT22;14238;49.496;8.154;2023-02-18T03:46:33;10.90;99.90
26595;DHT22;14238;49.496;8.154;2023-02-18T03:48:59;10.90;99.90
26595;DHT22;14238;49.496;8.154;2023-02-18T03:51:25;11.00;99.90
26595;DHT22;14238;49.496;8.154;2023-02-18T03:53:51;10.80;99.90
26595;DHT22;14238;49.496;8.154;2023-02-18T03:56:16;10.80;99.90
26595;DHT22;14238;49.496;8.154;2023-02-18T03:58:42;10.70;99.90
26595;DHT22;14238;49.496;8.154;2023-02-18T04:03:43;10.70;99.90
26595;DHT22;14238;49.496;8.154;2023-02-18T04:06:09;10.70;99.90
26595;DHT22;14238;49.496;8.154;2023-02-18T04:08:34;10.70;99.90
26595;DHT22;14238;49.496;8.154;2023-02-18T04:11:00;10.80;99.90
26595;DHT22;14238;49.496;8.154;2023-02-18T04:13:26;10.80;99.90
26595;DHT22;14238;49.496;8.154;2023-02-18T04:15:51;10.70;99.90
26595;DHT22;14238;49.496;8.154;2023-02-18T04:18:17;10.90;99.90
26595;DHT22;14238;49.496;8.154;2023-02-18T04:20:43;10.80;99.90
26595;DHT22;14238;49.496;8.154;2023-02-18T04:23:10;10.80;99.90
26595;DHT22;14238;49.496;8.154;2023-02-18T04:25:37;10.90;99.90
26595;DHT22;14238;49.496;8.154;2023-02-18T04:28:03;10.90;99.90
26595;DHT22;14238;49.496;8.154;2023-02-18T04:30:28;11.00;99.90
26595;DHT22;14238;49.496;8.154;2023-02-18T04:32:54;10.90;99.90
26595;DHT22;14238;49.496;8.154;2023-02-18T04:35:19;10.90;99.90
26595;DHT22;14238;49.496;8.154;2023-02-18T04:37:45;10.90;99.90
26595;DHT22;14238;49.496;8.154;2023-02-18T04:40:11;10.90;99.90
26595;DHT22;14238;49.496;8.154;2023-02-18T04:42:36;10.90;99.90
26595;DHT22;14238;49.496;8.154;2023-02-18T04:45:03;10.90;99.90
26595;DHT22;14238;49.496;8.154;2023-02-18T04:47:28;10.90;99.90
26595;DHT22;14238;49.496;8.154;2023-02-18T04:49:54;10.90;99.90
26595;DHT22;14238;49.496;8.154;2023-02-18T04:52:19;10.90;99.90
26595;DHT22;14238;49.496;8.154;2023-02-18T04:54:45;11.00;99.90
26595;DHT22;14238;49.496;8.154;2023-02-18T04:57:11;11.00;99.90
26595;DHT22;14238;49.496;8.154;2023-02-18T04:59:37;11.00;99.90
26595;DHT22;14238;49.496;8.154;2023-02-18T05:02:03;10.90;99.90
26595;DHT22;14238;49.496;8.154;2023-02-18T05:04:28;10.90;99.90
26595;DHT22;14238;49.496;8.154;2023-02-18T05:06:54;10.90;99.90
26595;DHT22;14238;49.496;8.154;2023-02-18T05:09:19;10.90;99.90
26595;DHT22;14238;49.496;8.154;2023-02-18T05:11:45;10.80;99.90
26595;DHT22;14238;49.496;8.154;2023-02-18T05:14:12;10.80;99.90
26595;DHT22;14238;49.496;8.154;2023-02-18T05:16:38;10.70;99.90
26595;DHT22;14238;49.496;8.154;2023-02-18T05:19:04;10.70;99.90
26595;DHT22;14238;49.496;8.154;2023-02-18T05:21:29;10.80;99.90
26595;DHT22;14238;49.496;8.154;2023-02-18T05:23:55;10.70;99.90
26595;DHT22;14238;49.496;8.154;2023-02-18T05:26:20;10.70;99.90
26595;DHT22;14238;49.496;8.154;2023-02-18T05:28:46;10.80;99.90
26595;DHT22;14238;49.496;8.154;2023-02-18T05:31:12;10.80;99.90
26595;DHT22;14238;49.496;8.154;2023-02-18T05:33:37;10.80;99.90
26595;DHT22;14238;49.496;8.154;2023-02-18T05:36:03;10.70;99.90
26595;DHT22;14238;49.496;8.154;2023-02-18T05:38:28;10.80;99.90
26595;DHT22;14238;49.496;8.154;2023-02-18T05:40:54;10.80;99.90
26595;DHT22;14238;49.496;8.154;2023-02-18T05:43:20;10.80;99.90
26595;DHT22;14238;49.496;8.154;2023-02-18T05:45:45;10.80;99.90
26595;DHT22;14238;49.496;8.154;2023-02-18T05:48:11;10.80;99.90
26595;DHT22;14238;49.496;8.154;2023-02-18T05:50:37;10.80;99.90
26595;DHT22;14238;49.496;8.154;2023-02-18T05:53:02;10.70;99.90
26595;DHT22;14238;49.496;8.154;2023-02-18T05:55:28;10.80;99.90
26595;DHT22;14238;49.496;8.154;2023-02-18T05:57:54;10.80;99.90
26595;DHT22;14238;49.496;8.154;2023-02-18T06:00:19;10.70;99.90
26595;DHT22;14238;49.496;8.154;2023-02-18T06:02:45;10.70;99.90
26595;DHT22;14238;49.496;8.154;2023-02-18T06:05:10;10.70;99.90
26595;DHT22;14238;49.496;8.154;2023-02-18T06:07:36;10.70;99.90
26595;DHT22;14238;49.496;8.154;2023-02-18T06:10:03;10.70;99.90
26595;DHT22;14238;49.496;8.154;2023-02-18T06:12:29;10.70;99.90
26595;DHT22;14238;49.496;8.154;2023-02-18T06:14:55;10.70;99.90
26595;DHT22;14238;49.496;8.154;2023-02-18T06:17:20;10.70;99.90
26595;DHT22;14238;49.496;8.154;2023-02-18T06:19:47;10.70;99.90
26595;DHT22;14238;49.496;8.154;2023-02-18T06:22:13;10.80;99.90
26595;DHT22;14238;49.496;8.154;2023-02-18T06:24:39;10.80;99.90
26595;DHT22;14238;49.496;8.154;2023-02-18T06:27:05;10.70;99.90
26595;DHT22;14238;49.496;8.154;2023-02-18T06:29:31;10.70;99.90
26595;DHT22;14238;49.496;8.154;2023-02-18T06:31:57;10.80;99.90
26595;DHT22;14238;49.496;8.154;2023-02-18T06:34:23;10.70;99.90
26595;DHT22;14238;49.496;8.154;2023-02-18T06:36:49;10.80;99.90
26595;DHT22;14238;49.496;8.154;2023-02-18T06:39:14;10.70;99.90
26595;DHT22;14238;49.496;8.154;2023-02-18T06:41:40;10.80;99.90
26595;DHT22;14238;49.496;8.154;2023-02-18T06:44:05;10.90;99.90
26595;DHT22;14238;49.496;8.154;2023-02-18T06:46:31;10.90;99.90
26595;DHT22;14238;49.496;8.154;2023-02-18T06:48:57;11.00;99.90
26595;DHT22;14238;49.496;8.154;2023-02-18T06:51:23;11.00;99.90
26595;DHT22;14238;49.496;8.154;2023-02-18T06:53:48;10.90;99.90
26595;DHT22;14238;49.496;8.154;2023-02-18T06:56:14;10.90;99.90
26595;DHT22;14238;49.496;8.154;2023-02-18T06:58:39;10.90;99.90
26595;DHT22;14238;49.496;8.154;2023-02-18T07:01:05;11.00;99.90
26595;DHT22;14238;49.496;8.154;2023-02-18T07:03:31;11.00;99.90
26595;DHT22;14238;49.496;8.154;2023-02-18T07:05:56;11.00;99.90
26595;DHT22;14238;49.496;8.154;2023-02-18T07:08:22;11.00;99.90
26595;DHT22;14238;49.496;8.154;2023-02-18T07:10:47;11.00;99.90
26595;DHT22;14238;49.496;8.154;2023-02-18T07:13:13;11.00;99.90
26595;DHT22;14238;49.496;8.154;2023-02-18T07:15:39;11.00;99.90
26595;DHT22;14238;49.496;8.154;2023-02-18T07:18:05;11.20;99.90
26595;DHT22;14238;49.496;8.154;2023-02-18T07:20:30;11.20;99.90
26595;DHT22;14238;49.496;8.154;2023-02-18T07:22:56;11.30;99.90
26595;DHT22;14238;49.496;8.154;2023-02-18T07:25:21;11.30;99.90
26595;DHT22;14238;49.496;8.154;2023-02-18T07:27:47;11.40;99.90
26595;DHT22;14238;49.496;8.154;2023-02-18T07:30:13;11.40;99.90
26595;DHT22;14238;49.496;8.154;2023-02-18T07:32:39;11.40;99.90
26595;DHT22;14238;49.496;8.154;2023-02-18T07:35:05;11.40;99.90
26595;DHT22;14238;49.496;8.154;2023-02-18T07:37:32;11.40;99.90
26595;DHT22;14238;49.496;8.154;2023-02-18T07:39:57;11.50;99.90
26595;DHT22;14238;49.496;8.154;2023-02-18T07:42:23;11.50;99.90
26595;DHT22;14238;49.496;8.154;2023-02-18T07:44:48;11.60;99.90
26595;DHT22;14238;49.496;8.154;2023-02-18T07:47:15;11.60;99.90
26595;DHT22;14238;49.496;8.154;2023-02-18T07:49:44;11.50;99.90
26595;DHT22;14238;49.496;8.154;2023-02-18T07:52:11;11.60;99.90
26595;DHT22;14238;49.496;8.154;2023-02-18T07:54:36;11.60;99.90
26595;DHT22;14238;49.496;8.154;2023-02-18T07:57:02;11.60;99.90
26595;DHT22;14238;49.496;8.154;2023-02-18T07:59:28;11.60;99.90
26595;DHT22;14238;49.496;8.154;2023-02-18T08:01:53;11.60;99.90
26595;DHT22;14238;49.496;8.154;2023-02-18T08:04:19;11.60;99.90
26595;DHT22;14238;49.496;8.154;2023-02-18T08:06:46;11.60;99.90
26595;DHT22;14238;49.496;8.154;2023-02-18T08:09:12;11.60;99.90
26595;DHT22;14238;49.496;8.154;2023-02-18T08:11:38;11.60;99.90
26595;DHT22;14238;49.496;8.154;2023-02-18T08:14:04;11.70;99.90
26595;DHT22;14238;49.496;8.154;2023-02-18T08:16:30;11.60;99.90
26595;DHT22;14238;49.496;8.154;2023-02-18T08:18:56;11.60;99.90
26595;DHT22;14238;49.496;8.154;2023-02-18T08:21:23;11.50;99.90
26595;DHT22;14238;49.496;8.154;2023-02-18T08:23:49;11.50;99.90
26595;DHT22;14238;49.496;8.154;2023-02-18T08:26:15;11.50;99.90
26595;DHT22;14238;49.496;8.154;2023-02-18T08:28:42;11.60;99.90
26595;DHT22;14238;49.496;8.154;2023-02-18T08:31:25;11.50;99.90
26595;DHT22;14238;49.496;8.154;2023-02-18T08:33:52;11.60;99.90
26595;DHT22;14238;49.496;8.154;2023-02-18T08:36:19;11.60;99.90
26595;DHT22;14238;49.496;8.154;2023-02-18T08:38:44;11.70;99.90
26595;DHT22;14238;49.496;8.154;2023-02-18T08:41:10;11.70;99.90
26595;DHT22;14238;49.496;8.154;2023-02-18T08:43:36;11.80;99.90
26595;DHT22;14238;49.496;8.154;2023-02-18T08:46:02;11.90;99.90
26595;DHT22;14238;49.496;8.154;2023-02-18T08:48:28;12.00;99.90
26595;DHT22;14238;49.496;8.154;2023-02-18T08:50:53;12.10;99.90
26595;DHT22;14238;49.496;8.154;2023-02-18T08:53:19;12.10;99.90
26595;DHT22;14238;49.496;8.154;2023-02-18T08:55:45;12.10;99.90
26595;DHT22;14238;49.496;8.154;2023-02-18T08:58:11;12.10;99.90
26595;DHT22;14238;49.496;8.154;2023-02-18T09:00:37;12.20;99.90
26595;DHT22;14238;49.496;8.154;2023-02-18T09:03:03;12.10;99.90
26595;DHT22;14238;49.496;8.154;2023-02-18T09:05:29;12.00;99.90
26595;DHT22;14238;49.496;8.154;2023-02-18T09:07:54;12.00;99.90
26595;DHT22;14238;49.496;8.154;2023-02-18T09:10:20;12.00;99.90
26595;DHT22;14238;49.496;8.154;2023-02-18T09:12:46;12.10;99.90
26595;DHT22;14238;49.496;8.154;2023-02-18T09:15:11;12.10;99.90
26595;DHT22;14238;49.496;8.154;2023-02-18T09:17:37;12.00;99.90
26595;DHT22;14238;49.496;8.154;2023-02-18T09:20:03;11.90;99.90
26595;DHT22;14238;49.496;8.154;2023-02-18T09:22:29;12.00;99.90
26595;DHT22;14238;49.496;8.154;2023-02-18T09:24:54;11.90;99.90
26595;DHT22;14238;49.496;8.154;2023-02-18T09:27:20;11.80;99.90
26595;DHT22;14238;49.496;8.154;2023-02-18T09:29:46;11.80;99.90
26595;DHT22;14238;49.496;8.154;2023-02-18T09:32:12;11.90;99.90
26595;DHT22;14238;49.496;8.154;2023-02-18T09:34:38;11.90;99.90
26595;DHT22;14238;49.496;8.154;2023-02-18T09:37:04;11.90;99.90
26595;DHT22;14238;49.496;8.154;2023-02-18T09:39:29;12.00;99.90
26595;DHT22;14238;49.496;8.154;2023-02-18T09:41:58;12.00;99.90
26595;DHT22;14238;49.496;8.154;2023-02-18T09:44:32;12.00;99.90
26595;DHT22;14238;49.496;8.154;2023-02-18T09:47:09;12.00;99.90
26595;DHT22;14238;49.496;8.154;2023-02-18T09:50:02;12.10;99.90
26595;DHT22;14238;49.496;8.154;2023-02-18T09:52:29;12.20;99.90
26595;DHT22;14238;49.496;8.154;2023-02-18T09:54:56;12.20;99.90
26595;DHT22;14238;49.496;8.154;2023-02-18T09:57:26;12.00;99.90
26595;DHT22;14238;49.496;8.154;2023-02-18T10:00:09;12.00;99.90
26595;DHT22;14238;49.496;8.154;2023-02-18T10:02:38;11.90;99.90
26595;DHT22;14238;49.496;8.154;2023-02-18T10:05:06;11.90;99.90
26595;DHT22;14238;49.496;8.154;2023-02-18T10:07:37;11.90;99.90
26595;DHT22;14238;49.496;8.154;2023-02-18T10:10:24;11.90;99.90
26595;DHT22;14238;49.496;8.154;2023-02-18T10:12:52;11.90;99.90
26595;DHT22;14238;49.496;8.154;2023-02-18T10:15:22;11.80;99.90
26595;DHT22;14238;49.496;8.154;2023-02-18T10:17:50;11.80;99.90
26595;DHT22;14238;49.496;8.154;2023-02-18T10:20:23;11.90;99.90
26595;DHT22;14238;49.496;8.154;2023-02-18T10:22:49;12.00;99.90
26595;DHT22;14238;49.496;8.154;2023-02-18T10:25:21;11.90;99.90
26595;DHT22;14238;49.496;8.154;2023-02-18T10:27:48;12.00;99.90
26595;DHT22;14238;49.496;8.154;2023-02-18T10:30:23;12.00;99.90
26595;DHT22;14238;49.496;8.154;2023-02-18T10:38:33;12.70;99.90
26595;DHT22;14238;49.496;8.154;2023-02-18T10:43:54;12.40;99.90
26595;DHT22;14238;49.496;8.154;2023-02-18T10:46:44;12.30;99.90
26595;DHT22;14238;49.496;8.154;2023-02-18T10:49:36;12.50;99.90
26595;DHT22;14238;49.496;8.154;2023-02-18T10:52:07;12.60;99.90
26595;DHT22;14238;49.496;8.154;2023-02-18T10:57:19;12.20;99.90
26595;DHT22;14238;49.496;8.154;2023-02-18T11:02:41;12.20;99.90
26595;DHT22;14238;49.496;8.154;2023-02-18T11:05:34;12.30;99.90
26595;DHT22;14238;49.496;8.154;2023-02-18T11:08:00;12.50;99.90
26595;DHT22;14238;49.496;8.154;2023-02-18T11:10:32;12.70;99.90
26595;DHT22;14238;49.496;8.154;2023-02-18T11:13:07;12.80;99.90
26595;DHT22;14238;49.496;8.154;2023-02-18T11:15:33;13.00;99.90
26595;DHT22;14238;49.496;8.154;2023-02-18T11:18:39;13.20;99.90
26595;DHT22;14238;49.496;8.154;2023-02-18T11:21:29;13.60;99.90
26595;DHT22;14238;49.496;8.154;2023-02-18T11:23:56;13.70;99.90
26595;DHT22;14238;49.496;8.154;2023-02-18T11:28:58;14.10;99.90
26595;DHT22;14238;49.496;8.154;2023-02-18T11:31:28;14.50;99.90
26595;DHT22;14238;49.496;8.154;2023-02-18T11:33:58;15.10;99.90
26595;DHT22;14238;49.496;8.154;2023-02-18T11:36:31;15.90;99.90
26595;DHT22;14238;49.496;8.154;2023-02-18T11:41:53;15.80;99.90
26595;DHT22;14238;49.496;8.154;2023-02-18T11:44:28;16.10;99.90
26595;DHT22;14238;49.496;8.154;2023-02-18T11:47:01;16.70;99.90
26595;DHT22;14238;49.496;8.154;2023-02-18T11:49:27;16.10;99.90
26595;DHT22;14238;49.496;8.154;2023-02-18T11:51:54;15.90;99.90
26595;DHT22;14238;49.496;8.154;2023-02-18T11:54:30;15.50;99.90
26595;DHT22;14238;49.496;8.154;2023-02-18T11:57:00;16.30;99.90
26595;DHT22;14238;49.496;8.154;2023-02-18T11:59:29;16.10;99.90
26595;DHT22;14238;49.496;8.154;2023-02-18T12:02:02;16.20;99.90
26595;DHT22;14238;49.496;8.154;2023-02-18T12:04:40;16.90;99.90
26595;DHT22;14238;49.496;8.154;2023-02-18T12:09:50;15.90;99.90
26595;DHT22;14238;49.496;8.154;2023-02-18T12:12:27;15.60;99.90
26595;DHT22;14238;49.496;8.154;2023-02-18T12:14:55;15.30;99.90
26595;DHT22;14238;49.496;8.154;2023-02-18T12:17:34;15.30;99.90
26595;DHT22;14238;49.496;8.154;2023-02-18T12:23:22;14.70;99.90
26595;DHT22;14238;49.496;8.154;2023-02-18T12:29:08;14.90;99.90
26595;DHT22;14238;49.496;8.154;2023-02-18T12:31:38;15.40;99.90
26595;DHT22;14238;49.496;8.154;2023-02-18T12:34:38;15.10;99.90
26595;DHT22;14238;49.496;8.154;2023-02-18T12:45:41;14.80;99.90
26595;DHT22;14238;49.496;8.154;2023-02-18T12:57:03;14.50;99.90
26595;DHT22;14238;49.496;8.154;2023-02-18T12:59:49;14.40;99.90
26595;DHT22;14238;49.496;8.154;2023-02-18T13:02:45;14.80;99.90
26595;DHT22;14238;49.496;8.154;2023-02-18T13:13:58;15.30;99.90
26595;DHT22;14238;49.496;8.154;2023-02-18T13:16:25;15.70;99.90
26595;DHT22;14238;49.496;8.154;2023-02-18T13:19:00;15.60;99.90
26595;DHT22;14238;49.496;8.154;2023-02-18T13:21:28;15.20;99.90
26595;DHT22;14238;49.496;8.154;2023-02-18T13:24:02;15.10;99.90
26595;DHT22;14238;49.496;8.154;2023-02-18T13:26:31;14.60;99.90
26595;DHT22;14238;49.496;8.154;2023-02-18T13:31:56;14.40;99.90
26595;DHT22;14238;49.496;8.154;2023-02-18T13:37:00;14.80;99.90
26595;DHT22;14238;49.496;8.154;2023-02-18T13:39:29;15.90;99.90
26595;DHT22;14238;49.496;8.154;2023-02-18T13:47:35;15.70;99.90
26595;DHT22;14238;49.496;8.154;2023-02-18T13:52:45;15.40;99.90
26595;DHT22;14238;49.496;8.154;2023-02-18T13:55:22;15.00;99.90
26595;DHT22;14238;49.496;8.154;2023-02-18T13:57:53;15.50;99.90
26595;DHT22;14238;49.496;8.154;2023-02-18T14:00:24;15.50;99.90
26595;DHT22;14238;49.496;8.154;2023-02-18T14:03:01;15.30;99.90
26595;DHT22;14238;49.496;8.154;2023-02-18T14:05:40;15.20;99.90
26595;DHT22;14238;49.496;8.154;2023-02-18T14:08:13;14.60;99.90
26595;DHT22;14238;49.496;8.154;2023-02-18T14:10:39;14.30;99.90
26595;DHT22;14238;49.496;8.154;2023-02-18T14:13:37;13.90;99.90
26595;DHT22;14238;49.496;8.154;2023-02-18T14:16:04;13.60;99.90
26595;DHT22;14238;49.496;8.154;2023-02-18T14:18:58;13.60;99.90
26595;DHT22;14238;49.496;8.154;2023-02-18T14:21:44;13.50;99.90
26595;DHT22;14238;49.496;8.154;2023-02-18T14:24:10;13.40;99.90
26595;DHT22;14238;49.496;8.154;2023-02-18T14:26:44;13.30;99.90
26595;DHT22;14238;49.496;8.154;2023-02-18T14:29:21;13.30;99.90
26595;DHT22;14238;49.496;8.154;2023-02-18T14:31:53;13.20;99.90
26595;DHT22;14238;49.496;8.154;2023-02-18T14:37:35;13.10;99.90
26595;DHT22;14238;49.496;8.154;2023-02-18T14:40:37;13.10;99.90
26595;DHT22;14238;49.496;8.154;2023-02-18T14:51:20;12.80;99.90
26595;DHT22;14238;49.496;8.154;2023-02-18T14:53:47;12.90;99.90
26595;DHT22;14238;49.496;8.154;2023-02-18T14:56:17;13.00;99.90
26595;DHT22;14238;49.496;8.154;2023-02-18T14:59:03;12.80;99.90
26595;DHT22;14238;49.496;8.154;2023-02-18T15:01:38;12.70;99.90
26595;DHT22;14238;49.496;8.154;2023-02-18T15:04:05;12.80;99.90
26595;DHT22;14238;49.496;8.154;2023-02-18T15:06:34;12.70;99.90
26595;DHT22;14238;49.496;8.154;2023-02-18T15:09:17;12.50;99.90
26595;DHT22;14238;49.496;8.154;2023-02-18T15:11:55;12.50;99.90
26595;DHT22;14238;49.496;8.154;2023-02-18T15:14:45;12.40;99.90
26595;DHT22;14238;49.496;8.154;2023-02-18T15:17:26;12.50;99.90
26595;DHT22;14238;49.496;8.154;2023-02-18T15:20:02;12.50;99.90
26595;DHT22;14238;49.496;8.154;2023-02-18T15:22:34;12.40;99.90
26595;DHT22;14238;49.496;8.154;2023-02-18T15:25:00;12.30;99.90
26595;DHT22;14238;49.496;8.154;2023-02-18T15:27:32;12.20;99.90
26595;DHT22;14238;49.496;8.154;2023-02-18T15:30:26;12.10;99.90
26595;DHT22;14238;49.496;8.154;2023-02-18T15:32:56;12.10;99.90
26595;DHT22;14238;49.496;8.154;2023-02-18T15:35:26;12.10;99.90
26595;DHT22;14238;49.496;8.154;2023-02-18T15:37:55;12.10;99.90
26595;DHT22;14238;49.496;8.154;2023-02-18T15:40:23;12.00;99.90
26595;DHT22;14238;49.496;8.154;2023-02-18T15:42:51;12.00;99.90
26595;DHT22;14238;49.496;8.154;2023-02-18T15:45:22;11.90;99.90
26595;DHT22;14238;49.496;8.154;2023-02-18T15:47:51;11.80;99.90
26595;DHT22;14238;49.496;8.154;2023-02-18T15:50:29;11.80;99.90
26595;DHT22;14238;49.496;8.154;2023-02-18T15:52:58;11.80;99.90
26595;DHT22;14238;49.496;8.154;2023-02-18T15:55:30;11.70;99.90
26595;DHT22;14238;49.496;8.154;2023-02-18T15:57:59;11.70;99.90
26595;DHT22;14238;49.496;8.154;2023-02-18T16:00:32;11.60;99.90
26595;DHT22;14238;49.496;8.154;2023-02-18T16:03:15;11.60;99.90
26595;DHT22;14238;49.496;8.154;2023-02-18T16:05:41;11.60;99.90
26595;DHT22;14238;49.496;8.154;2023-02-18T16:08:36;11.60;99.90
26595;DHT22;14238;49.496;8.154;2023-02-18T16:11:05;11.60;99.90
26595;DHT22;14238;49.496;8.154;2023-02-18T16:13:31;11.50;99.90
26595;DHT22;14238;49.496;8.154;2023-02-18T16:15:59;11.50;99.90
26595;DHT22;14238;49.496;8.154;2023-02-18T16:21:06;11.40;99.90
26595;DHT22;14238;49.496;8.154;2023-02-18T16:23:54;11.30;99.90
26595;DHT22;14238;49.496;8.154;2023-02-18T16:29:11;11.20;99.90
26595;DHT22;14238;49.496;8.154;2023-02-18T16:31:37;11.20;99.90
26595;DHT22;14238;49.496;8.154;2023-02-18T16:34:03;11.20;99.90
26595;DHT22;14238;49.496;8.154;2023-02-18T16:36:29;11.20;99.90
26595;DHT22;14238;49.496;8.154;2023-02-18T16:38:54;11.20;99.90
26595;DHT22;14238;49.496;8.154;2023-02-18T16:41:20;11.10;99.90
26595;DHT22;14238;49.496;8.154;2023-02-18T16:43:46;11.10;99.90
26595;DHT22;14238;49.496;8.154;2023-02-18T16:46:15;11.10;99.90
26595;DHT22;14238;49.496;8.154;2023-02-18T16:48:44;11.00;99.90
26595;DHT22;14238;49.496;8.154;2023-02-18T16:51:31;10.90;99.90
26595;DHT22;14238;49.496;8.154;2023-02-18T16:53:55;10.90;99.90
26595;DHT22;14238;49.496;8.154;2023-02-18T16:56:24;10.80;99.90
26595;DHT22;14238;49.496;8.154;2023-02-18T16:58:50;10.80;99.90
26595;DHT22;14238;49.496;8.154;2023-02-18T17:01:37;10.70;99.90
26595;DHT22;14238;49.496;8.154;2023-02-18T17:04:08;10.70;99.90
26595;DHT22;14238;49.496;8.154;2023-02-18T17:06:34;10.70;99.90
26595;DHT22;14238;49.496;8.154;2023-02-18T17:09:00;10.60;99.90
26595;DHT22;14238;49.496;8.154;2023-02-18T17:11:29;10.60;99.90
26595;DHT22;14238;49.496;8.154;2023-02-18T17:13:55;10.60;99.90
26595;DHT22;14238;49.496;8.154;2023-02-18T17:16:25;10.50;99.90
26595;DHT22;14238;49.496;8.154;2023-02-18T17:18:51;10.50;99.90
26595;DHT22;14238;49.496;8.154;2023-02-18T17:21:19;10.40;99.90
26595;DHT22;14238;49.496;8.154;2023-02-18T17:23:45;10.40;99.90
26595;DHT22;14238;49.496;8.154;2023-02-18T17:26:19;10.40;99.90
26595;DHT22;14238;49.496;8.154;2023-02-18T17:28:45;10.40;99.90
26595;DHT22;14238;49.496;8.154;2023-02-18T17:31:14;10.40;99.90
26595;DHT22;14238;49.496;8.154;2023-02-18T17:33:41;10.40;99.90
26595;DHT22;14238;49.496;8.154;2023-02-18T17:36:08;10.40;99.90
26595;DHT22;14238;49.496;8.154;2023-02-18T17:38:34;10.40;99.90
26595;DHT22;14238;49.496;8.154;2023-02-18T17:40:59;10.40;99.90
26595;DHT22;14238;49.496;8.154;2023-02-18T17:43:25;10.40;99.90
26595;DHT22;14238;49.496;8.154;2023-02-18T17:45:53;10.40;99.90
26595;DHT22;14238;49.496;8.154;2023-02-18T17:48:19;10.40;99.90